sensor_id;sensor_type;location;lat;lon;timestamp;P1;durP1;ratioP1;P2;durP2;ratioP2
21800;SDS011;11062;51.164;16.924;2023-06-01T06:24:21;301.30;;;99.05;;
21800;SDS011;11062;51.164;16.924;2023-06-01T06:26:47;334.23;;;102.85;;
21800;SDS011;11062;51.164;16.924;2023-06-01T06:29:14;332.27;;;102.80;;
21800;SDS011;11062;51.164;16.924;2023-06-01T06:31:44;311.98;;;113.22;;
21800;SDS011;11062;51.164;16.924;2023-06-01T06:34:16;301.05;;;117.00;;
21800;SDS011;11062;51.164;16.924;2023-06-01T06:36:44;309.45;;;118.65;;
21800;SDS011;11062;51.164;16.924;2023-06-01T07:54:06;276.13;;;101.95;;
21800;SDS011;11062;51.164;16.924;2023-06-01T08:31:28;298.75;;;111.75;;
21800;SDS011;11062;51.164;16.924;2023-06-01T08:33:55;295.83;;;106.57;;
21800;SDS011;11062;51.164;16.924;2023-06-01T08:36:21;300.60;;;108.15;;
21800;SDS011;11062;51.164;16.924;2023-06-01T08:38:48;300.13;;;111.28;;
21800;SDS011;11062;51.164;16.924;2023-06-01T08:41:20;303.80;;;113.80;;
21800;SDS011;11062;51.164;16.924;2023-06-01T08:44:05;302.42;;;111.68;;
21800;SDS011;11062;51.164;16.924;2023-06-01T08:46:33;298.73;;;112.57;;
21800;SDS011;11062;51.164;16.924;2023-06-01T08:49:00;293.00;;;115.32;;
21800;SDS011;11062;51.164;16.924;2023-06-01T08:51:34;306.13;;;118.38;;
21800;SDS011;11062;51.164;16.924;2023-06-01T08:54:09;300.00;;;112.45;;
21800;SDS011;11062;51.164;16.924;2023-06-01T08:56:35;302.17;;;115.55;;
21800;SDS011;11062;51.164;16.924;2023-06-01T08:59:11;315.50;;;113.80;;
21800;SDS011;11062;51.164;16.924;2023-06-01T09:01:45;315.17;;;121.82;;
21800;SDS011;11062;51.164;16.924;2023-06-01T09:04:14;299.65;;;117.95;;
21800;SDS011;11062;51.164;16.924;2023-06-01T09:06:44;291.63;;;112.80;;
21800;SDS011;11062;51.164;16.924;2023-06-01T09:09:11;294.05;;;117.60;;
21800;SDS011;11062;51.164;16.924;2023-06-01T09:38:06;327.20;;;119.00;;
21800;SDS011;11062;51.164;16.924;2023-06-01T09:40:34;299.70;;;118.93;;
21800;SDS011;11062;51.164;16.924;2023-06-01T09:43:00;310.42;;;115.97;;
21800;SDS011;11062;51.164;16.924;2023-06-01T09:45:28;304.98;;;116.10;;
21800;SDS011;11062;51.164;16.924;2023-06-01T09:48:14;316.52;;;118.97;;
21800;SDS011;11062;51.164;16.924;2023-06-01T09:50:44;301.48;;;114.70;;
21800;SDS011;11062;51.164;16.924;2023-06-01T09:53:10;297.30;;;117.55;;
21800;SDS011;11062;51.164;16.924;2023-06-01T09:55:40;299.50;;;116.72;;
21800;SDS011;11062;51.164;16.924;2023-06-01T09:58:28;305.63;;;124.10;;
21800;SDS011;11062;51.164;16.924;2023-06-01T10:00:54;302.17;;;124.55;;
21800;SDS011;11062;51.164;16.924;2023-06-01T10:03:21;309.15;;;125.70;;
21800;SDS011;11062;51.164;16.924;2023-06-01T10:05:48;301.30;;;129.48;;
21800;SDS011;11062;51.164;16.924;2023-06-01T10:08:16;309.17;;;131.60;;
21800;SDS011;11062;51.164;16.924;2023-06-01T10:10:44;324.70;;;145.48;;
21800;SDS011;11062;51.164;16.924;2023-06-01T10:13:12;318.38;;;140.10;;
21800;SDS011;11062;51.164;16.924;2023-06-01T10:18:44;321.17;;;137.98;;
21800;SDS011;11062;51.164;16.924;2023-06-01T10:21:13;304.45;;;134.35;;
21800;SDS011;11062;51.164;16.924;2023-06-01T10:23:40;302.13;;;137.57;;
21800;SDS011;11062;51.164;16.924;2023-06-01T10:57:52;336.02;;;165.80;;
21800;SDS011;11062;51.164;16.924;2023-06-01T11:00:57;326.85;;;162.02;;
21800;SDS011;11062;51.164;16.924;2023-06-01T11:08:57;346.17;;;169.63;;
21800;SDS011;11062;51.164;16.924;2023-06-01T11:14:17;321.98;;;163.35;;
21800;SDS011;11062;51.164;16.924;2023-06-01T11:16:56;318.40;;;167.82;;
21800;SDS011;11062;51.164;16.924;2023-06-01T11:19:57;327.15;;;177.02;;
21800;SDS011;11062;51.164;16.924;2023-06-01T11:22:34;325.73;;;166.02;;
21800;SDS011;11062;51.164;16.924;2023-06-01T11:25:06;331.08;;;164.68;;
21800;SDS011;11062;51.164;16.924;2023-06-01T11:27:33;346.38;;;179.35;;
21800;SDS011;11062;51.164;16.924;2023-06-01T11:30:03;327.50;;;161.38;;
21800;SDS011;11062;51.164;16.924;2023-06-01T11:32:31;335.58;;;175.48;;
21800;SDS011;11062;51.164;16.924;2023-06-01T11:35:17;335.25;;;172.05;;
21800;SDS011;11062;51.164;16.924;2023-06-01T11:37:54;343.98;;;173.68;;
21800;SDS011;11062;51.164;16.924;2023-06-01T11:40:23;330.45;;;179.02;;
21800;SDS011;11062;51.164;16.924;2023-06-01T11:42:49;339.27;;;179.80;;
21800;SDS011;11062;51.164;16.924;2023-06-01T11:45:17;329.23;;;178.85;;
21800;SDS011;11062;51.164;16.924;2023-06-01T11:47:46;346.83;;;176.52;;
21800;SDS011;11062;51.164;16.924;2023-06-01T11:50:21;338.48;;;172.75;;
21800;SDS011;11062;51.164;16.924;2023-06-01T11:52:54;342.95;;;188.90;;
21800;SDS011;11062;51.164;16.924;2023-06-01T11:55:21;338.33;;;185.70;;
21800;SDS011;11062;51.164;16.924;2023-06-01T11:57:47;331.33;;;180.10;;
21800;SDS011;11062;51.164;16.924;2023-06-01T12:00:13;337.52;;;187.25;;
21800;SDS011;11062;51.164;16.924;2023-06-01T15:45:30;383.02;;;221.45;;
21800;SDS011;11062;51.164;16.924;2023-06-01T16:03:10;341.30;;;212.45;;
21800;SDS011;11062;51.164;16.924;2023-06-01T16:17:34;357.75;;;218.75;;
21800;SDS011;11062;51.164;16.924;2023-06-01T16:24:48;366.05;;;211.25;;
21800;SDS011;11062;51.164;16.924;2023-06-01T16:27:35;349.98;;;215.88;;
21800;SDS011;11062;51.164;16.924;2023-06-01T16:30:06;380.88;;;215.52;;
21800;SDS011;11062;51.164;16.924;2023-06-01T16:32:33;357.52;;;219.25;;
21800;SDS011;11062;51.164;16.924;2023-06-01T16:34:59;344.35;;;212.63;;
21800;SDS011;11062;51.164;16.924;2023-06-01T16:37:26;348.23;;;215.27;;
21800;SDS011;11062;51.164;16.924;2023-06-01T16:39:53;354.40;;;210.02;;
21800;SDS011;11062;51.164;16.924;2023-06-01T16:42:19;362.38;;;220.43;;
21800;SDS011;11062;51.164;16.924;2023-06-01T16:44:45;349.95;;;205.82;;
21800;SDS011;11062;51.164;16.924;2023-06-01T16:47:12;381.65;;;218.05;;
21800;SDS011;11062;51.164;16.924;2023-06-01T16:49:38;350.45;;;207.05;;
21800;SDS011;11062;51.164;16.924;2023-06-01T16:52:07;343.70;;;208.35;;
21800;SDS011;11062;51.164;16.924;2023-06-01T16:54:33;345.80;;;196.90;;
21800;SDS011;11062;51.164;16.924;2023-06-01T16:57:02;351.40;;;205.50;;
21800;SDS011;11062;51.164;16.924;2023-06-01T16:59:34;353.27;;;202.90;;
21800;SDS011;11062;51.164;16.924;2023-06-01T17:02:04;330.85;;;199.82;;
21800;SDS011;11062;51.164;16.924;2023-06-01T17:04:33;351.33;;;201.05;;
21800;SDS011;11062;51.164;16.924;2023-06-01T17:06:59;343.60;;;198.68;;
21800;SDS011;11062;51.164;16.924;2023-06-01T17:09:25;342.75;;;191.85;;
21800;SDS011;11062;51.164;16.924;2023-06-01T17:11:54;335.08;;;193.82;;
21800;SDS011;11062;51.164;16.924;2023-06-01T17:14:23;356.17;;;199.32;;
21800;SDS011;11062;51.164;16.924;2023-06-01T17:16:50;341.02;;;193.60;;
21800;SDS011;11062;51.164;16.924;2023-06-01T17:19:17;348.50;;;191.75;;
21800;SDS011;11062;51.164;16.924;2023-06-01T17:21:46;351.73;;;195.60;;
21800;SDS011;11062;51.164;16.924;2023-06-01T17:24:12;343.83;;;185.63;;
21800;SDS011;11062;51.164;16.924;2023-06-01T17:26:39;345.58;;;192.13;;
21800;SDS011;11062;51.164;16.924;2023-06-01T17:29:06;379.38;;;197.10;;
21800;SDS011;11062;51.164;16.924;2023-06-01T17:59:05;337.90;;;182.57;;
21800;SDS011;11062;51.164;16.924;2023-06-01T18:01:31;356.90;;;175.02;;
21800;SDS011;11062;51.164;16.924;2023-06-01T18:03:57;339.40;;;176.77;;
21800;SDS011;11062;51.164;16.924;2023-06-01T18:06:24;353.95;;;176.00;;
21800;SDS011;11062;51.164;16.924;2023-06-01T18:08:50;357.00;;;178.75;;
21800;SDS011;11062;51.164;16.924;2023-06-01T18:11:17;330.10;;;175.13;;
21800;SDS011;11062;51.164;16.924;2023-06-01T18:13:43;340.38;;;162.32;;
21800;SDS011;11062;51.164;16.924;2023-06-01T18:16:09;342.95;;;159.70;;
21800;SDS011;11062;51.164;16.924;2023-06-01T18:18:35;344.58;;;166.23;;
21800;SDS011;11062;51.164;16.924;2023-06-01T18:21:02;330.20;;;155.93;;
21800;SDS011;11062;51.164;16.924;2023-06-01T18:23:38;340.30;;;158.57;;
21800;SDS011;11062;51.164;16.924;2023-06-01T18:26:27;328.23;;;154.45;;
21800;SDS011;11062;51.164;16.924;2023-06-01T18:31:24;313.98;;;141.02;;
